sensor_id;sensor_type;location;lat;lon;timestamp;pressure;altitude;pressure_sealevel;temperature;humidity
35224;BME280;21367;51.930;8.112;2023-02-28T00:00:41;102494.78;;;-0.06;81.63
35224;BME280;21367;51.930;8.112;2023-02-28T00:05:44;102491.00;;;-0.10;82.32
35224;BME280;21367;51.930;8.112;2023-02-28T00:10:48;102491.38;;;-0.14;82.29
35224;BME280;21367;51.930;8.112;2023-02-28T00:16:03;102485.31;;;-0.30;82.24
35224;BME280;21367;51.930;8.112;2023-02-28T00:21:09;102488.16;;;-0.20;82.34
35224;BME280;21367;51.930;8.112;2023-02-28T00:26:13;102482.25;;;-0.28;82.41
35224;BME280;21367;51.930;8.112;2023-02-28T00:31:22;102480.09;;;-0.39;82.55
35224;BME280;21367;51.930;8.112;2023-02-28T00:36:26;102481.38;;;-0.42;82.94
35224;BME280;21367;51.930;8.112;2023-02-28T00:41:30;102481.78;;;-0.54;82.87
35224;BME280;21367;51.930;8.112;2023-02-28T00:46:36;102468.78;;;-0.57;82.88
35224;BME280;21367;51.930;8.112;2023-02-28T00:51:40;102466.50;;;-0.62;83.52
35224;BME280;21367;51.930;8.112;2023-02-28T00:56:44;102471.13;;;-0.51;82.91
35224;BME280;21367;51.930;8.112;2023-02-28T01:01:50;102470.97;;;-0.53;82.70
35224;BME280;21367;51.930;8.112;2023-02-28T01:06:56;102477.47;;;-0.69;83.73
35224;BME280;21367;51.930;8.112;2023-02-28T01:11:59;102482.69;;;-0.60;83.57
35224;BME280;21367;51.930;8.112;2023-02-28T01:17:06;102481.63;;;-0.70;83.89
35224;BME280;21367;51.930;8.112;2023-02-28T01:22:10;102474.97;;;-0.76;83.93
35224;BME280;21367;51.930;8.112;2023-02-28T01:27:16;102481.28;;;-0.73;83.77
35224;BME280;21367;51.930;8.112;2023-02-28T01:32:23;102478.59;;;-0.74;83.72
35224;BME280;21367;51.930;8.112;2023-02-28T01:37:27;102483.84;;;-0.80;83.66
35224;BME280;21367;51.930;8.112;2023-02-28T01:42:30;102484.19;;;-0.77;83.73
35224;BME280;21367;51.930;8.112;2023-02-28T01:47:41;102476.44;;;-0.85;83.46
35224;BME280;21367;51.930;8.112;2023-02-28T01:52:47;102468.72;;;-0.87;83.68
35224;BME280;21367;51.930;8.112;2023-02-28T01:57:53;102472.88;;;-0.87;83.67
35224;BME280;21367;51.930;8.112;2023-02-28T02:03:06;102475.59;;;-1.00;83.77
35224;BME280;21367;51.930;8.112;2023-02-28T02:08:15;102479.53;;;-1.02;84.06
35224;BME280;21367;51.930;8.112;2023-02-28T02:13:29;102477.94;;;-1.09;84.08
35224;BME280;21367;51.930;8.112;2023-02-28T02:18:44;102481.16;;;-1.17;83.98
35224;BME280;21367;51.930;8.112;2023-02-28T02:24:21;102473.59;;;-1.17;84.23
35224;BME280;21367;51.930;8.112;2023-02-28T02:30:01;102470.53;;;-1.14;84.29
35224;BME280;21367;51.930;8.112;2023-02-28T02:35:16;102466.41;;;-1.28;84.46
35224;BME280;21367;51.930;8.112;2023-02-28T02:40:23;102471.81;;;-1.32;85.06
35224;BME280;21367;51.930;8.112;2023-02-28T02:45:32;102467.66;;;-1.46;85.52
35224;BME280;21367;51.930;8.112;2023-02-28T02:50:44;102462.78;;;-1.45;85.94
35224;BME280;21367;51.930;8.112;2023-02-28T02:55:51;102466.78;;;-1.47;86.29
35224;BME280;21367;51.930;8.112;2023-02-28T03:01:00;102476.31;;;-1.44;86.01
35224;BME280;21367;51.930;8.112;2023-02-28T03:06:08;102471.97;;;-1.52;85.79
35224;BME280;21367;51.930;8.112;2023-02-28T03:11:13;102476.81;;;-1.54;85.58
35224;BME280;21367;51.930;8.112;2023-02-28T03:16:30;102474.13;;;-1.55;85.44
35224;BME280;21367;51.930;8.112;2023-02-28T03:21:43;102473.94;;;-1.64;85.36
35224;BME280;21367;51.930;8.112;2023-02-28T03:26:53;102473.56;;;-1.67;85.79
35224;BME280;21367;51.930;8.112;2023-02-28T03:32:05;102471.78;;;-1.68;85.54
35224;BME280;21367;51.930;8.112;2023-02-28T03:37:19;102471.59;;;-1.70;85.35
35224;BME280;21367;51.930;8.112;2023-02-28T03:42:26;102466.75;;;-1.68;85.38
35224;BME280;21367;51.930;8.112;2023-02-28T03:47:34;102473.22;;;-1.77;85.12
35224;BME280;21367;51.930;8.112;2023-02-28T03:52:47;102479.88;;;-1.78;85.18
35224;BME280;21367;51.930;8.112;2023-02-28T03:57:56;102476.25;;;-1.80;84.84
35224;BME280;21367;51.930;8.112;2023-02-28T04:03:03;102474.78;;;-1.85;84.98
35224;BME280;21367;51.930;8.112;2023-02-28T04:08:10;102473.72;;;-1.87;85.98
35224;BME280;21367;51.930;8.112;2023-02-28T04:13:13;102479.31;;;-1.90;86.52
35224;BME280;21367;51.930;8.112;2023-02-28T04:18:17;102480.03;;;-1.91;86.26
35224;BME280;21367;51.930;8.112;2023-02-28T04:23:24;102479.97;;;-1.98;85.71
35224;BME280;21367;51.930;8.112;2023-02-28T04:28:28;102468.47;;;-2.03;85.00
35224;BME280;21367;51.930;8.112;2023-02-28T04:33:32;102477.66;;;-2.03;85.46
35224;BME280;21367;51.930;8.112;2023-02-28T04:38:38;102471.69;;;-2.04;85.15
35224;BME280;21367;51.930;8.112;2023-02-28T04:43:42;102476.72;;;-2.11;85.49
35224;BME280;21367;51.930;8.112;2023-02-28T04:48:46;102475.63;;;-2.13;85.60
35224;BME280;21367;51.930;8.112;2023-02-28T04:53:53;102486.63;;;-2.13;85.29
35224;BME280;21367;51.930;8.112;2023-02-28T04:58:57;102478.50;;;-2.10;85.10
35224;BME280;21367;51.930;8.112;2023-02-28T05:04:02;102486.78;;;-2.11;85.73
35224;BME280;21367;51.930;8.112;2023-02-28T05:09:09;102481.72;;;-2.25;85.52
35224;BME280;21367;51.930;8.112;2023-02-28T05:14:14;102482.75;;;-2.38;85.50
35224;BME280;21367;51.930;8.112;2023-02-28T05:19:18;102477.72;;;-2.30;85.76
35224;BME280;21367;51.930;8.112;2023-02-28T05:24:26;102488.91;;;-2.28;86.09
35224;BME280;21367;51.930;8.112;2023-02-28T05:29:30;102490.28;;;-2.38;85.60
35224;BME280;21367;51.930;8.112;2023-02-28T05:34:34;102490.97;;;-2.39;85.42
35224;BME280;21367;51.930;8.112;2023-02-28T05:39:41;102490.44;;;-2.43;85.87
35224;BME280;21367;51.930;8.112;2023-02-28T05:44:46;102500.13;;;-2.46;85.89
35224;BME280;21367;51.930;8.112;2023-02-28T05:49:49;102505.34;;;-2.45;85.70
35224;BME280;21367;51.930;8.112;2023-02-28T05:54:56;102500.69;;;-2.42;85.13
35224;BME280;21367;51.930;8.112;2023-02-28T05:59:59;102500.00;;;-2.41;84.84
35224;BME280;21367;51.930;8.112;2023-02-28T06:05:14;102504.44;;;-2.45;84.77
35224;BME280;21367;51.930;8.112;2023-02-28T06:10:20;102510.00;;;-2.48;84.86
35224;BME280;21367;51.930;8.112;2023-02-28T06:15:24;102510.19;;;-2.46;84.59
35224;BME280;21367;51.930;8.112;2023-02-28T06:20:28;102500.69;;;-2.42;84.43
35224;BME280;21367;51.930;8.112;2023-02-28T06:25:35;102510.81;;;-2.35;84.54
35224;BME280;21367;51.930;8.112;2023-02-28T06:30:39;102509.34;;;-2.33;83.75
35224;BME280;21367;51.930;8.112;2023-02-28T06:35:43;102505.13;;;-2.19;83.21
35224;BME280;21367;51.930;8.112;2023-02-28T06:40:56;102506.31;;;-2.30;83.31
35224;BME280;21367;51.930;8.112;2023-02-28T06:46:01;102521.63;;;-2.28;83.62
35224;BME280;21367;51.930;8.112;2023-02-28T06:51:07;102516.41;;;-2.23;83.33
35224;BME280;21367;51.930;8.112;2023-02-28T06:56:15;102516.78;;;-2.20;83.00
35224;BME280;21367;51.930;8.112;2023-02-28T07:01:20;102527.22;;;-2.17;82.91
35224;BME280;21367;51.930;8.112;2023-02-28T07:06:24;102524.97;;;-2.01;82.60
35224;BME280;21367;51.930;8.112;2023-02-28T07:11:31;102527.66;;;-2.06;83.33
35224;BME280;21367;51.930;8.112;2023-02-28T07:16:36;102534.34;;;-1.93;83.30
35224;BME280;21367;51.930;8.112;2023-02-28T07:21:40;102538.50;;;-1.86;83.10
35224;BME280;21367;51.930;8.112;2023-02-28T07:26:46;102546.66;;;-1.81;83.23
35224;BME280;21367;51.930;8.112;2023-02-28T07:31:50;102547.19;;;-1.77;83.10
35224;BME280;21367;51.930;8.112;2023-02-28T07:36:54;102551.56;;;-1.61;82.64
35224;BME280;21367;51.930;8.112;2023-02-28T07:42:04;102554.44;;;-1.51;83.06
35224;BME280;21367;51.930;8.112;2023-02-28T07:47:10;102547.13;;;-1.28;83.00
35224;BME280;21367;51.930;8.112;2023-02-28T07:52:13;102550.75;;;-1.19;82.48
35224;BME280;21367;51.930;8.112;2023-02-28T07:57:20;102548.03;;;-1.06;82.46
35224;BME280;21367;51.930;8.112;2023-02-28T08:02:23;102554.88;;;-0.84;81.95
35224;BME280;21367;51.930;8.112;2023-02-28T08:07:27;102560.97;;;-0.82;81.54
35224;BME280;21367;51.930;8.112;2023-02-28T08:12:33;102562.78;;;-0.74;81.28
35224;BME280;21367;51.930;8.112;2023-02-28T08:17:37;102563.34;;;-0.76;80.64
35224;BME280;21367;51.930;8.112;2023-02-28T08:22:41;102565.84;;;-0.62;80.56
35224;BME280;21367;51.930;8.112;2023-02-28T08:27:47;102559.72;;;-0.64;77.59
35224;BME280;21367;51.930;8.112;2023-02-28T08:32:53;102558.22;;;-0.33;77.00
35224;BME280;21367;51.930;8.112;2023-02-28T08:37:57;102561.25;;;-0.29;75.15
35224;BME280;21367;51.930;8.112;2023-02-28T08:43:03;102556.28;;;0.02;74.42
35224;BME280;21367;51.930;8.112;2023-02-28T08:48:07;102556.69;;;0.35;71.01
35224;BME280;21367;51.930;8.112;2023-02-28T08:53:11;102548.41;;;0.59;68.73
35224;BME280;21367;51.930;8.112;2023-02-28T08:58:17;102552.34;;;0.64;67.71
35224;BME280;21367;51.930;8.112;2023-02-28T09:03:21;102558.56;;;1.05;65.50
35224;BME280;21367;51.930;8.112;2023-02-28T09:08:27;102562.34;;;1.24;64.16
35224;BME280;21367;51.930;8.112;2023-02-28T09:13:34;102559.41;;;1.51;63.14
35224;BME280;21367;51.930;8.112;2023-02-28T09:18:39;102544.69;;;1.72;63.08
35224;BME280;21367;51.930;8.112;2023-02-28T09:23:44;102544.94;;;1.82;61.96
35224;BME280;21367;51.930;8.112;2023-02-28T09:28:52;102540.69;;;1.90;60.98
35224;BME280;21367;51.930;8.112;2023-02-28T09:33:57;102540.84;;;2.31;61.27
35224;BME280;21367;51.930;8.112;2023-02-28T09:39:01;102545.38;;;2.59;59.84
35224;BME280;21367;51.930;8.112;2023-02-28T09:44:13;102546.06;;;2.49;58.27
35224;BME280;21367;51.930;8.112;2023-02-28T09:49:24;102547.91;;;2.59;58.35
35224;BME280;21367;51.930;8.112;2023-02-28T09:54:30;102542.88;;;2.67;58.65
35224;BME280;21367;51.930;8.112;2023-02-28T09:59:50;102544.38;;;2.98;57.68
35224;BME280;21367;51.930;8.112;2023-02-28T10:05:00;102546.03;;;2.98;56.47
35224;BME280;21367;51.930;8.112;2023-02-28T10:10:18;102541.59;;;3.13;54.54
35224;BME280;21367;51.930;8.112;2023-02-28T10:15:30;102547.25;;;3.01;54.88
35224;BME280;21367;51.930;8.112;2023-02-28T10:20:35;102545.94;;;3.14;54.75
35224;BME280;21367;51.930;8.112;2023-02-28T10:25:43;102531.38;;;3.46;55.43
35224;BME280;21367;51.930;8.112;2023-02-28T10:30:52;102540.72;;;3.80;54.45
35224;BME280;21367;51.930;8.112;2023-02-28T10:35:57;102536.22;;;4.12;54.40
35224;BME280;21367;51.930;8.112;2023-02-28T10:41:07;102538.78;;;4.04;52.85
35224;BME280;21367;51.930;8.112;2023-02-28T10:46:16;102548.69;;;3.41;54.92
35224;BME280;21367;51.930;8.112;2023-02-28T10:51:34;102536.41;;;3.29;55.50
35224;BME280;21367;51.930;8.112;2023-02-28T10:56:38;102538.97;;;3.37;56.03
35224;BME280;21367;51.930;8.112;2023-02-28T11:01:46;102538.00;;;3.61;55.83
35224;BME280;21367;51.930;8.112;2023-02-28T11:06:57;102528.13;;;3.82;56.03
35224;BME280;21367;51.930;8.112;2023-02-28T11:12:02;102521.97;;;4.40;55.72
35224;BME280;21367;51.930;8.112;2023-02-28T11:17:19;102527.09;;;4.85;55.43
35224;BME280;21367;51.930;8.112;2023-02-28T11:22:25;102525.09;;;4.55;55.59
35224;BME280;21367;51.930;8.112;2023-02-28T11:27:54;102516.00;;;4.31;55.74
35224;BME280;21367;51.930;8.112;2023-02-28T11:33:20;102511.41;;;3.84;56.45
35224;BME280;21367;51.930;8.112;2023-02-28T11:38:25;102516.88;;;3.36;57.71
35224;BME280;21367;51.930;8.112;2023-02-28T11:43:38;102509.34;;;4.68;56.52
35224;BME280;21367;51.930;8.112;2023-02-28T11:48:56;102499.28;;;5.06;54.86
35224;BME280;21367;51.930;8.112;2023-02-28T11:59:35;102483.41;;;5.55;55.32
35224;BME280;21367;51.930;8.112;2023-02-28T12:04:53;102475.53;;;5.81;54.25
35224;BME280;21367;51.930;8.112;2023-02-28T12:10:10;102478.50;;;5.67;53.70
35224;BME280;21367;51.930;8.112;2023-02-28T12:15:37;102468.78;;;6.00;53.99
35224;BME280;21367;51.930;8.112;2023-02-28T12:20:53;102456.88;;;6.20;53.53
35224;BME280;21367;51.930;8.112;2023-02-28T12:26:05;102460.22;;;5.81;53.16
35224;BME280;21367;51.930;8.112;2023-02-28T12:31:16;102450.75;;;6.57;51.76
35224;BME280;21367;51.930;8.112;2023-02-28T12:36:23;102447.41;;;7.28;52.02
35224;BME280;21367;51.930;8.112;2023-02-28T12:41:34;102443.47;;;7.22;51.30
35224;BME280;21367;51.930;8.112;2023-02-28T12:46:42;102425.75;;;6.63;50.32
35224;BME280;21367;51.930;8.112;2023-02-28T12:51:52;102425.66;;;6.82;50.21
35224;BME280;21367;51.930;8.112;2023-02-28T12:57:02;102431.25;;;7.70;48.36
35224;BME280;21367;51.930;8.112;2023-02-28T13:02:28;102428.31;;;6.73;50.29
35224;BME280;21367;51.930;8.112;2023-02-28T13:13:20;102411.81;;;6.20;51.38
35224;BME280;21367;51.930;8.112;2023-02-28T13:18:30;102409.81;;;4.75;54.34
35224;BME280;21367;51.930;8.112;2023-02-28T13:23:57;102403.09;;;5.22;54.45
35224;BME280;21367;51.930;8.112;2023-02-28T13:29:04;102402.75;;;5.66;53.81
35224;BME280;21367;51.930;8.112;2023-02-28T13:34:24;102405.13;;;6.31;52.98
35224;BME280;21367;51.930;8.112;2023-02-28T13:39:47;102412.13;;;5.19;54.29
35224;BME280;21367;51.930;8.112;2023-02-28T13:50:33;102392.53;;;6.14;52.67
35224;BME280;21367;51.930;8.112;2023-02-28T13:55:43;102387.94;;;7.21;50.82
35224;BME280;21367;51.930;8.112;2023-02-28T14:01:03;102383.19;;;6.43;51.76
35224;BME280;21367;51.930;8.112;2023-02-28T14:06:17;102391.31;;;6.29;51.28
35224;BME280;21367;51.930;8.112;2023-02-28T14:11:33;102382.09;;;7.22;50.94
35224;BME280;21367;51.930;8.112;2023-02-28T14:16:40;102381.69;;;6.66;50.44
35224;BME280;21367;51.930;8.112;2023-02-28T14:22:00;102374.66;;;7.25;50.67
35224;BME280;21367;51.930;8.112;2023-02-28T14:27:20;102378.22;;;7.27;49.27
35224;BME280;21367;51.930;8.112;2023-02-28T14:32:30;102367.94;;;7.57;50.33
35224;BME280;21367;51.930;8.112;2023-02-28T14:37:39;102360.25;;;7.15;49.38
35224;BME280;21367;51.930;8.112;2023-02-28T14:42:48;102355.53;;;7.52;48.86
35224;BME280;21367;51.930;8.112;2023-02-28T14:47:58;102362.63;;;7.34;49.22
35224;BME280;21367;51.930;8.112;2023-02-28T14:53:06;102346.47;;;9.56;47.25
35224;BME280;21367;51.930;8.112;2023-02-28T14:58:24;102354.50;;;7.60;48.72
35224;BME280;21367;51.930;8.112;2023-02-28T15:03:31;102351.13;;;9.26;45.94
35224;BME280;21367;51.930;8.112;2023-02-28T15:08:38;102348.41;;;10.94;43.45
35224;BME280;21367;51.930;8.112;2023-02-28T15:13:44;102352.59;;;8.66;46.06
35224;BME280;21367;51.930;8.112;2023-02-28T15:18:50;102346.78;;;9.72;44.40
35224;BME280;21367;51.930;8.112;2023-02-28T15:24:01;102367.47;;;8.16;47.04
35224;BME280;21367;51.930;8.112;2023-02-28T15:29:11;102363.00;;;10.32;44.79
35224;BME280;21367;51.930;8.112;2023-02-28T15:34:19;102357.28;;;9.87;44.53
35224;BME280;21367;51.930;8.112;2023-02-28T15:39:28;102364.44;;;8.75;45.63
35224;BME280;21367;51.930;8.112;2023-02-28T15:44:34;102368.91;;;9.35;46.58
35224;BME280;21367;51.930;8.112;2023-02-28T15:49:40;102361.94;;;8.65;45.81
35224;BME280;21367;51.930;8.112;2023-02-28T15:54:50;102371.31;;;8.10;47.11
35224;BME280;21367;51.930;8.112;2023-02-28T15:59:56;102366.75;;;7.01;48.92
35224;BME280;21367;51.930;8.112;2023-02-28T16:05:21;102373.78;;;7.24;48.46
35224;BME280;21367;51.930;8.112;2023-02-28T16:10:31;102375.78;;;6.36;52.27
35224;BME280;21367;51.930;8.112;2023-02-28T16:15:37;102378.69;;;4.97;54.37
35224;BME280;21367;51.930;8.112;2023-02-28T16:20:43;102385.69;;;4.44;56.50
35224;BME280;21367;51.930;8.112;2023-02-28T16:25:50;102382.50;;;4.19;57.79
35224;BME280;21367;51.930;8.112;2023-02-28T16:30:53;102381.28;;;4.33;57.35
35224;BME280;21367;51.930;8.112;2023-02-28T16:35:57;102385.72;;;4.35;58.18
35224;BME280;21367;51.930;8.112;2023-02-28T16:41:05;102388.69;;;4.49;57.78
35224;BME280;21367;51.930;8.112;2023-02-28T16:46:10;102394.94;;;4.07;59.45
35224;BME280;21367;51.930;8.112;2023-02-28T16:51:15;102391.47;;;4.24;58.98
35224;BME280;21367;51.930;8.112;2023-02-28T16:56:23;102394.44;;;3.49;60.21
35224;BME280;21367;51.930;8.112;2023-02-28T17:01:28;102395.03;;;3.38;61.76
35224;BME280;21367;51.930;8.112;2023-02-28T17:06:32;102402.78;;;3.57;61.00
35224;BME280;21367;51.930;8.112;2023-02-28T17:11:38;102395.94;;;3.64;61.13
35224;BME280;21367;51.930;8.112;2023-02-28T17:16:42;102398.34;;;3.45;62.18
35224;BME280;21367;51.930;8.112;2023-02-28T17:21:46;102401.25;;;4.02;60.55
35224;BME280;21367;51.930;8.112;2023-02-28T17:26:54;102395.03;;;3.64;62.11
35224;BME280;21367;51.930;8.112;2023-02-28T17:31:57;102399.97;;;3.71;61.62
35224;BME280;21367;51.930;8.112;2023-02-28T17:37:01;102404.16;;;3.62;61.73
35224;BME280;21367;51.930;8.112;2023-02-28T17:42:07;102411.47;;;3.59;61.39
35224;BME280;21367;51.930;8.112;2023-02-28T17:47:11;102414.63;;;3.56;61.58
35224;BME280;21367;51.930;8.112;2023-02-28T17:52:15;102426.75;;;3.59;63.02
35224;BME280;21367;51.930;8.112;2023-02-28T17:57:21;102420.00;;;3.51;62.71
35224;BME280;21367;51.930;8.112;2023-02-28T18:02:25;102430.91;;;3.50;62.96
35224;BME280;21367;51.930;8.112;2023-02-28T18:07:29;102439.13;;;2.70;63.33
35224;BME280;21367;51.930;8.112;2023-02-28T18:12:35;102446.53;;;3.02;64.38
35224;BME280;21367;51.930;8.112;2023-02-28T18:17:39;102445.00;;;2.87;64.32
35224;BME280;21367;51.930;8.112;2023-02-28T18:22:43;102440.38;;;2.49;65.11
35224;BME280;21367;51.930;8.112;2023-02-28T18:27:50;102444.25;;;2.79;64.95
35224;BME280;21367;51.930;8.112;2023-02-28T18:32:59;102444.03;;;2.11;65.37
35224;BME280;21367;51.930;8.112;2023-02-28T18:38:06;102442.06;;;2.58;65.19
35224;BME280;21367;51.930;8.112;2023-02-28T18:43:13;102436.81;;;1.98;67.36
35224;BME280;21367;51.930;8.112;2023-02-28T18:48:16;102437.47;;;2.38;66.59
35224;BME280;21367;51.930;8.112;2023-02-28T18:53:22;102433.38;;;2.55;65.48
35224;BME280;21367;51.930;8.112;2023-02-28T18:58:29;102437.31;;;2.61;65.32
35224;BME280;21367;51.930;8.112;2023-02-28T19:03:33;102438.91;;;2.51;65.55
35224;BME280;21367;51.930;8.112;2023-02-28T19:08:36;102434.09;;;2.46;65.88
35224;BME280;21367;51.930;8.112;2023-02-28T19:13:44;102435.44;;;2.18;66.14
35224;BME280;21367;51.930;8.112;2023-02-28T19:18:48;102437.97;;;2.18;66.57
35224;BME280;21367;51.930;8.112;2023-02-28T19:23:52;102438.09;;;2.11;66.78
35224;BME280;21367;51.930;8.112;2023-02-28T19:29:01;102433.59;;;2.08;66.91
35224;BME280;21367;51.930;8.112;2023-02-28T19:34:04;102435.22;;;2.07;67.14
35224;BME280;21367;51.930;8.112;2023-02-28T19:39:08;102440.06;;;1.97;67.70
35224;BME280;21367;51.930;8.112;2023-02-28T19:44:15;102440.38;;;1.76;68.14
35224;BME280;21367;51.930;8.112;2023-02-28T19:49:18;102453.28;;;1.70;68.59
35224;BME280;21367;51.930;8.112;2023-02-28T19:54:25;102450.34;;;1.58;68.59
35224;BME280;21367;51.930;8.112;2023-02-28T19:59:36;102450.44;;;1.51;69.46
35224;BME280;21367;51.930;8.112;2023-02-28T20:04:39;102454.34;;;1.41;69.63
35224;BME280;21367;51.930;8.112;2023-02-28T20:09:43;102450.94;;;1.40;69.96
35224;BME280;21367;51.930;8.112;2023-02-28T20:14:50;102443.09;;;1.30;70.32
35224;BME280;21367;51.930;8.112;2023-02-28T20:19:55;102443.66;;;1.27;70.26
35224;BME280;21367;51.930;8.112;2023-02-28T20:24:59;102442.75;;;1.27;70.49
35224;BME280;21367;51.930;8.112;2023-02-28T20:30:07;102436.88;;;1.19;70.61
35224;BME280;21367;51.930;8.112;2023-02-28T20:35:11;102432.13;;;1.06;71.24
35224;BME280;21367;51.930;8.112;2023-02-28T20:40:14;102448.69;;;0.96;71.61
35224;BME280;21367;51.930;8.112;2023-02-28T20:45:21;102452.94;;;0.88;71.95
35224;BME280;21367;51.930;8.112;2023-02-28T20:50:24;102460.19;;;0.85;72.32
35224;BME280;21367;51.930;8.112;2023-02-28T20:55:28;102466.81;;;0.68;72.95
35224;BME280;21367;51.930;8.112;2023-02-28T21:00:34;102477.56;;;0.59;73.60
35224;BME280;21367;51.930;8.112;2023-02-28T21:05:38;102466.88;;;0.61;73.68
35224;BME280;21367;51.930;8.112;2023-02-28T21:10:42;102468.59;;;0.54;74.04
35224;BME280;21367;51.930;8.112;2023-02-28T21:15:49;102479.06;;;0.50;74.03
35224;BME280;21367;51.930;8.112;2023-02-28T21:20:52;102482.34;;;0.49;73.80
35224;BME280;21367;51.930;8.112;2023-02-28T21:26:00;102479.41;;;0.53;73.38
35224;BME280;21367;51.930;8.112;2023-02-28T21:31:09;102485.91;;;0.58;73.34
35224;BME280;21367;51.930;8.112;2023-02-28T21:36:16;102482.50;;;0.50;73.79
35224;BME280;21367;51.930;8.112;2023-02-28T21:41:21;102483.78;;;0.46;73.62
35224;BME280;21367;51.930;8.112;2023-02-28T21:46:30;102491.44;;;0.39;73.37
35224;BME280;21367;51.930;8.112;2023-02-28T21:51:33;102488.91;;;0.39;73.64
35224;BME280;21367;51.930;8.112;2023-02-28T21:56:37;102482.44;;;0.34;73.77
35224;BME280;21367;51.930;8.112;2023-02-28T22:01:44;102464.97;;;0.29;73.53
35224;BME280;21367;51.930;8.112;2023-02-28T22:06:49;102456.13;;;0.25;73.94
35224;BME280;21367;51.930;8.112;2023-02-28T22:11:54;102456.53;;;0.21;74.28
35224;BME280;21367;51.930;8.112;2023-02-28T22:17:01;102453.84;;;0.12;74.30
35224;BME280;21367;51.930;8.112;2023-02-28T22:22:06;102466.75;;;0.07;74.65
35224;BME280;21367;51.930;8.112;2023-02-28T22:27:10;102465.16;;;0.00;74.78
35224;BME280;21367;51.930;8.112;2023-02-28T22:32:16;102470.97;;;-0.08;75.60
35224;BME280;21367;51.930;8.112;2023-02-28T22:37:20;102464.81;;;-0.03;75.35
35224;BME280;21367;51.930;8.112;2023-02-28T22:42:23;102477.09;;;-0.13;75.37
35224;BME280;21367;51.930;8.112;2023-02-28T22:47:29;102475.72;;;-0.18;75.80
35224;BME280;21367;51.930;8.112;2023-02-28T22:52:33;102485.78;;;-0.11;75.39
35224;BME280;21367;51.930;8.112;2023-02-28T22:57:37;102489.44;;;-0.24;75.55
35224;BME280;21367;51.930;8.112;2023-02-28T23:02:44;102494.50;;;-0.24;75.35
35224;BME280;21367;51.930;8.112;2023-02-28T23:07:47;102501.34;;;-0.22;75.54
35224;BME280;21367;51.930;8.112;2023-02-28T23:12:51;102495.09;;;-0.40;76.23
35224;BME280;21367;51.930;8.112;2023-02-28T23:17:57;102492.75;;;-0.39;76.11
35224;BME280;21367;51.930;8.112;2023-02-28T23:23:01;102484.06;;;-0.41;76.23
35224;BME280;21367;51.930;8.112;2023-02-28T23:28:05;102492.81;;;-0.53;76.40
35224;BME280;21367;51.930;8.112;2023-02-28T23:33:12;102489.16;;;-0.48;76.47
35224;BME280;21367;51.930;8.112;2023-02-28T23:38:15;102485.94;;;-0.54;76.35
35224;BME280;21367;51.930;8.112;2023-02-28T23:43:19;102488.13;;;-0.64;77.47
35224;BME280;21367;51.930;8.112;2023-02-28T23:48:26;102479.84;;;-0.71;77.23
35224;BME280;21367;51.930;8.112;2023-02-28T23:53:30;102472.25;;;-0.63;77.27
35224;BME280;21367;51.930;8.112;2023-02-28T23:58:35;102473.16;;;-0.70;77.34
